PWSweather.com
Personal Weather Stations
Station Observations
KILMORRI1
Goose Lake, Morris, IL 60450

Goose LakeMorris, IL 60450

Lat: 41.34, Lon: -88.3

Elevation: 523

Station Type:

www.gooselakeweather.com

High Low Average
Temperature 51.3°F10.7°C 42.5°F5.8°C 45.5°F7.5°C
Dew Point 49.0°F9.4°C 41.2°F5.1°C 43.8°F6.6°C
Winds 19.6 mph 31.5 kmh Calm Calm 9.0 mph ENE14.5 kmh ENE
Wind Gusts 26.5 mph42.6 kmh -- 13.0 mph20.9 kmh
Humidity 97% 90% 94%
Pressure 29.91 in1012.9 mb 29.48 in998.3 mb -
Precipitation 2.08 in52.8 mm - -
Hour Temp Dew Point Humidity Winds Wind Gusts Pressure Precip Precip Rate Daily Precip Total
12:00 AM 46.7°F8.2°C 40.9°F4.9°C 80% 10.4 mph E16.7 kmh E 17.3 mph27.8 kmh 29.92 in1013.2 mb - 0.00 in0.0 mm 0.00 in0.0 mm
12:10 AM 46.7°F8.2°C 41.2°F5.1°C 81% 6.9 mph E11.1 kmh E 6.9 mph11.1 kmh 29.95 in1014.2 mb - 0.01 in0.3 mm 0.01 in0.3 mm
12:20 AM 45.8°F7.7°C 41.8°F5.4°C 86% 10.4 mph E16.7 kmh E 15.0 mph24.1 kmh 29.91 in1012.9 mb - 0.07 in1.8 mm 0.07 in1.8 mm
12:30 AM 44.9°F7.2°C 41.0°F5.0°C 86% 12.7 mph E20.4 kmh E 18.4 mph29.6 kmh 29.92 in1013.2 mb - 0.02 in0.5 mm 0.09 in2.3 mm
12:40 AM 44.4°F6.9°C 40.8°F4.9°C 87% 13.8 mph E22.2 kmh E 19.6 mph31.5 kmh 29.90 in1012.5 mb - 0.01 in0.3 mm 0.10 in2.5 mm
12:50 AM 44.3°F6.8°C 41.3°F5.2°C 89% 11.5 mph E18.5 kmh E 16.1 mph25.9 kmh 29.90 in1012.5 mb - 0.00 in0.0 mm 0.10 in2.5 mm
01:00 AM 44.4°F6.9°C 41.7°F5.4°C 90% 11.5 mph ENE18.5 kmh ENE 19.6 mph31.5 kmh 29.90 in1012.5 mb - 0.02 in0.5 mm 0.12 in3.0 mm
01:10 AM 44.3°F6.8°C 41.6°F5.3°C 90% 9.2 mph E14.8 kmh E 16.1 mph25.9 kmh 29.90 in1012.5 mb - 0.04 in1.0 mm 0.16 in4.1 mm
01:20 AM 43.9°F6.6°C 41.2°F5.1°C 90% 10.4 mph E16.7 kmh E 16.1 mph25.9 kmh 29.90 in1012.5 mb - 0.08 in2.0 mm 0.24 in6.1 mm
01:30 AM 43.9°F6.6°C 41.7°F5.4°C 92% 4.6 mph E7.4 kmh E 11.5 mph18.5 kmh 29.91 in1012.9 mb - 0.14 in3.6 mm 0.38 in9.7 mm
01:40 AM 43.9°F6.6°C 42.0°F5.6°C 93% 10.4 mph E16.7 kmh E 16.1 mph25.9 kmh 29.90 in1012.5 mb - 0.20 in5.1 mm 0.56 in14.2 mm
01:50 AM 43.7°F6.5°C 42.1°F5.6°C 94% 5.8 mph E9.3 kmh E 12.7 mph20.4 kmh 29.91 in1012.9 mb - 0.11 in2.8 mm 0.65 in16.5 mm
02:00 AM 43.7°F6.5°C 42.1°F5.6°C 94% 12.7 mph E20.4 kmh E 16.1 mph25.9 kmh 29.91 in1012.9 mb - 0.15 in3.8 mm 0.79 in20.1 mm
02:10 AM 43.5°F6.4°C 41.9°F5.5°C 94% 10.4 mph E16.7 kmh E 20.7 mph33.3 kmh 29.88 in1011.9 mb - 0.21 in5.3 mm 0.99 in25.1 mm
02:20 AM 44.2°F6.8°C 42.8°F6.0°C 95% 10.4 mph E16.7 kmh E 13.8 mph22.2 kmh 29.87 in1011.5 mb - 0.14 in3.6 mm 1.11 in28.2 mm
02:30 AM 44.7°F7.1°C 43.1°F6.2°C 94% 13.8 mph ENE22.2 kmh ENE 18.4 mph29.6 kmh 29.87 in1011.5 mb - 0.01 in0.3 mm 1.12 in28.4 mm
02:40 AM 44.9°F7.2°C 43.3°F6.3°C 94% 12.7 mph NE20.4 kmh NE 18.4 mph29.6 kmh 29.89 in1012.2 mb - 0.09 in2.3 mm 1.21 in30.7 mm
02:50 AM 44.9°F7.2°C 43.3°F6.3°C 94% 15.0 mph E24.1 kmh E 17.3 mph27.8 kmh 29.89 in1012.2 mb - 0.03 in0.8 mm 1.23 in31.2 mm
03:00 AM 45.1°F7.3°C 43.2°F6.2°C 93% 17.3 mph E27.8 kmh E 26.5 mph42.6 kmh 29.87 in1011.5 mb - 0.02 in0.5 mm 1.25 in31.8 mm
03:10 AM 44.9°F7.2°C 43.0°F6.1°C 93% 12.7 mph E20.4 kmh E 23.0 mph37.0 kmh 29.85 in1010.8 mb - 0.03 in0.8 mm 1.27 in32.3 mm
03:20 AM 44.9°F7.2°C 43.0°F6.1°C 93% 15.0 mph E24.1 kmh E 23.0 mph37.0 kmh 29.84 in1010.5 mb - 0.02 in0.5 mm 1.29 in32.8 mm
03:30 AM 44.7°F7.1°C 42.8°F6.0°C 93% 15.0 mph E24.1 kmh E 17.3 mph27.8 kmh 29.83 in1010.2 mb - 0.00 in0.0 mm 1.29 in32.8 mm
03:40 AM 44.7°F7.1°C 42.8°F6.0°C 93% 9.2 mph E14.8 kmh E 17.3 mph27.8 kmh 29.82 in1009.8 mb - 0.00 in0.0 mm 1.29 in32.8 mm
03:50 AM 45.0°F7.2°C 43.1°F6.2°C 93% 11.5 mph E18.5 kmh E 17.3 mph27.8 kmh 29.81 in1009.5 mb - 0.00 in0.0 mm 1.29 in32.8 mm
04:00 AM 44.8°F7.1°C 42.6°F5.9°C 92% 10.4 mph E16.7 kmh E 12.7 mph20.4 kmh 29.82 in1009.8 mb - 0.00 in0.0 mm 1.29 in32.8 mm
04:10 AM 44.5°F6.9°C 42.3°F5.7°C 92% 12.7 mph E20.4 kmh E 18.4 mph29.6 kmh 29.82 in1009.8 mb - 0.00 in0.0 mm 1.29 in32.8 mm
04:20 AM 44.5°F6.9°C 42.4°F5.8°C 92% 9.2 mph E14.8 kmh E 13.8 mph22.2 kmh 29.83 in1010.2 mb - 0.00 in0.0 mm 1.29 in32.8 mm
04:30 AM 44.7°F7.1°C 42.5°F5.8°C 92% 15.0 mph E24.1 kmh E 19.6 mph31.5 kmh 29.82 in1009.8 mb - 0.00 in0.0 mm 1.29 in32.8 mm
04:40 AM 44.7°F7.1°C 42.6°F5.9°C 92% 12.7 mph E20.4 kmh E 15.0 mph24.1 kmh 29.81 in1009.5 mb - 0.00 in0.0 mm 1.29 in32.8 mm
04:50 AM 44.6°F7.0°C 42.2°F5.7°C 91% 12.7 mph E20.4 kmh E 21.9 mph35.2 kmh 29.80 in1009.1 mb - 0.00 in0.0 mm 1.29 in32.8 mm
05:00 AM 44.3°F6.8°C 41.8°F5.4°C 91% 11.5 mph E18.5 kmh E 20.7 mph33.3 kmh 29.81 in1009.5 mb - 0.01 in0.3 mm 1.30 in33.0 mm
05:10 AM 44.0°F6.7°C 41.5°F5.3°C 91% 9.2 mph E14.8 kmh E 12.7 mph20.4 kmh 29.80 in1009.1 mb - 0.02 in0.5 mm 1.32 in33.5 mm
05:20 AM 43.8°F6.6°C 41.6°F5.3°C 92% 8.1 mph E13.0 kmh E 15.0 mph24.1 kmh 29.80 in1009.1 mb - 0.02 in0.5 mm 1.34 in34.0 mm
05:30 AM 43.6°F6.4°C 41.4°F5.2°C 92% 13.8 mph E22.2 kmh E 19.6 mph31.5 kmh 29.78 in1008.5 mb - 0.03 in0.8 mm 1.37 in34.8 mm
05:40 AM 43.4°F6.3°C 41.5°F5.3°C 93% 17.3 mph E27.8 kmh E 21.9 mph35.2 kmh 29.78 in1008.5 mb - 0.05 in1.3 mm 1.42 in36.1 mm
05:50 AM 43.3°F6.3°C 41.4°F5.2°C 93% 18.4 mph ESE29.6 kmh ESE 21.9 mph35.2 kmh 29.77 in1008.1 mb - 0.03 in0.8 mm 1.44 in36.6 mm
06:00 AM 43.2°F6.2°C 41.6°F5.3°C 94% 18.4 mph ESE29.6 kmh ESE 23.0 mph37.0 kmh 29.77 in1008.1 mb - 0.01 in0.3 mm 1.45 in36.8 mm
06:10 AM 43.2°F6.2°C 41.6°F5.3°C 94% 19.6 mph ESE31.5 kmh ESE 25.3 mph40.7 kmh 29.76 in1007.8 mb - 0.01 in0.3 mm 1.45 in36.8 mm
06:20 AM 43.2°F6.2°C 41.6°F5.3°C 94% 13.8 mph E22.2 kmh E 18.4 mph29.6 kmh 29.75 in1007.5 mb - 0.01 in0.3 mm 1.46 in37.1 mm
06:30 AM 43.2°F6.2°C 41.6°F5.3°C 94% 17.3 mph E27.8 kmh E 26.5 mph42.6 kmh 29.75 in1007.5 mb - 0.00 in0.0 mm 1.46 in37.1 mm
06:40 AM 43.1°F6.2°C 41.5°F5.3°C 94% 13.8 mph ESE22.2 kmh ESE 25.3 mph40.7 kmh 29.76 in1007.8 mb - 0.02 in0.5 mm 1.48 in37.6 mm
06:50 AM 43.0°F6.1°C 41.4°F5.2°C 94% 16.1 mph E25.9 kmh E 25.3 mph40.7 kmh 29.76 in1007.8 mb - 0.01 in0.3 mm 1.49 in37.8 mm
07:00 AM 43.0°F6.1°C 41.4°F5.2°C 94% 10.4 mph ESE16.7 kmh ESE 12.7 mph20.4 kmh 29.76 in1007.8 mb - 0.01 in0.3 mm 1.50 in38.1 mm
07:10 AM 43.0°F6.1°C 41.4°F5.2°C 94% 13.8 mph E22.2 kmh E 19.6 mph31.5 kmh 29.74 in1007.1 mb - 0.00 in0.0 mm 1.50 in38.1 mm
07:20 AM 43.0°F6.1°C 41.4°F5.2°C 94% 15.0 mph E24.1 kmh E 19.6 mph31.5 kmh 29.73 in1006.8 mb - 0.01 in0.3 mm 1.51 in38.4 mm
07:30 AM 43.0°F6.1°C 41.4°F5.2°C 94% 11.5 mph E18.5 kmh E 17.3 mph27.8 kmh 29.73 in1006.8 mb - 0.00 in0.0 mm 1.51 in38.4 mm
07:40 AM 43.1°F6.2°C 41.5°F5.3°C 94% 10.4 mph E16.7 kmh E 16.1 mph25.9 kmh 29.73 in1006.8 mb - 0.00 in0.0 mm 1.51 in38.4 mm
07:50 AM 43.4°F6.3°C 41.8°F5.4°C 94% 11.5 mph E18.5 kmh E 16.1 mph25.9 kmh 29.72 in1006.4 mb - 0.00 in0.0 mm 1.51 in38.4 mm
08:00 AM 43.7°F6.5°C 42.1°F5.6°C 94% 15.0 mph ESE24.1 kmh ESE 16.1 mph25.9 kmh 29.74 in1007.1 mb - 0.00 in0.0 mm 1.51 in38.4 mm
08:10 AM 43.7°F6.5°C 41.8°F5.4°C 93% 13.8 mph E22.2 kmh E 18.4 mph29.6 kmh 29.73 in1006.8 mb - 0.00 in0.0 mm 1.51 in38.4 mm
08:20 AM 43.6°F6.4°C 41.7°F5.4°C 93% 16.1 mph ESE25.9 kmh ESE 20.7 mph33.3 kmh 29.72 in1006.4 mb - 0.00 in0.0 mm 1.51 in38.4 mm
08:30 AM 43.6°F6.4°C 41.7°F5.4°C 93% 19.6 mph ESE31.5 kmh ESE 23.0 mph37.0 kmh 29.70 in1005.8 mb - 0.00 in0.0 mm 1.51 in38.4 mm
08:40 AM 43.7°F6.5°C 41.8°F5.4°C 93% 12.7 mph E20.4 kmh E 16.1 mph25.9 kmh 29.71 in1006.1 mb - 0.00 in0.0 mm 1.51 in38.4 mm
08:50 AM 43.7°F6.5°C 41.8°F5.4°C 93% 13.8 mph ESE22.2 kmh ESE 19.6 mph31.5 kmh 29.70 in1005.8 mb - 0.00 in0.0 mm 1.51 in38.4 mm
09:00 AM 43.7°F6.5°C 42.1°F5.6°C 94% 12.7 mph ESE20.4 kmh ESE 16.1 mph25.9 kmh 29.70 in1005.8 mb - 0.00 in0.0 mm 1.51 in38.4 mm
09:10 AM 43.8°F6.6°C 42.2°F5.7°C 94% 10.4 mph E16.7 kmh E 11.5 mph18.5 kmh 29.70 in1005.8 mb - 0.01 in0.3 mm 1.52 in38.6 mm
09:20 AM 43.9°F6.6°C 42.3°F5.7°C 94% 11.5 mph E18.5 kmh E 13.8 mph22.2 kmh 29.70 in1005.8 mb - 0.00 in0.0 mm 1.52 in38.6 mm
09:30 AM 44.1°F6.7°C 42.5°F5.8°C 94% 9.2 mph E14.8 kmh E 12.7 mph20.4 kmh 29.70 in1005.8 mb - 0.00 in0.0 mm 1.52 in38.6 mm
09:40 AM 44.2°F6.8°C 42.6°F5.9°C 94% 9.2 mph E14.8 kmh E 16.1 mph25.9 kmh 29.69 in1005.4 mb - 0.00 in0.0 mm 1.52 in38.6 mm
09:50 AM 44.3°F6.8°C 42.7°F5.9°C 94% 9.2 mph E14.8 kmh E 15.0 mph24.1 kmh 29.68 in1005.1 mb - 0.00 in0.0 mm 1.52 in38.6 mm
10:00 AM 44.4°F6.9°C 42.8°F6.0°C 94% 10.4 mph E16.7 kmh E 11.5 mph18.5 kmh 29.67 in1004.7 mb - 0.00 in0.0 mm 1.52 in38.6 mm
10:10 AM 44.4°F6.9°C 42.8°F6.0°C 94% 10.4 mph E16.7 kmh E 15.0 mph24.1 kmh 29.67 in1004.7 mb - 0.00 in0.0 mm 1.52 in38.6 mm
10:20 AM 44.5°F6.9°C 42.9°F6.1°C 94% 9.2 mph E14.8 kmh E 13.8 mph22.2 kmh 29.67 in1004.7 mb - 0.00 in0.0 mm 1.52 in38.6 mm
10:30 AM 44.5°F6.9°C 42.9°F6.1°C 94% 10.4 mph ESE16.7 kmh ESE 11.5 mph18.5 kmh 29.67 in1004.7 mb - 0.00 in0.0 mm 1.52 in38.6 mm
10:40 AM 44.6°F7.0°C 42.9°F6.1°C 94% 12.7 mph E20.4 kmh E 16.1 mph25.9 kmh 29.66 in1004.4 mb - 0.01 in0.3 mm 1.53 in38.9 mm
10:50 AM 44.6°F7.0°C 43.0°F6.1°C 94% 9.2 mph E14.8 kmh E 12.7 mph20.4 kmh 29.67 in1004.7 mb - 0.03 in0.8 mm 1.56 in39.6 mm
11:00 AM 44.5°F6.9°C 42.9°F6.1°C 94% 6.9 mph E11.1 kmh E 8.1 mph13.0 kmh 29.66 in1004.4 mb - 0.04 in1.0 mm 1.59 in40.4 mm
11:10 AM 44.4°F6.9°C 43.1°F6.2°C 95% 8.1 mph E13.0 kmh E 10.4 mph16.7 kmh 29.64 in1003.7 mb - 0.04 in1.0 mm 1.62 in41.1 mm
11:20 AM 44.4°F6.9°C 43.0°F6.1°C 95% 9.2 mph E14.8 kmh E 13.8 mph22.2 kmh 29.64 in1003.7 mb - 0.02 in0.5 mm 1.64 in41.7 mm
11:30 AM 44.5°F6.9°C 43.2°F6.2°C 95% 6.9 mph E11.1 kmh E 6.9 mph11.1 kmh 29.63 in1003.4 mb - 0.03 in0.8 mm 1.67 in42.4 mm
11:40 AM 44.7°F7.1°C 43.6°F6.4°C 96% 9.2 mph E14.8 kmh E 13.8 mph22.2 kmh 29.63 in1003.4 mb - 0.01 in0.3 mm 1.68 in42.7 mm
11:50 AM 44.9°F7.2°C 43.8°F6.6°C 96% 8.1 mph E13.0 kmh E 12.7 mph20.4 kmh 29.61 in1002.7 mb - 0.02 in0.5 mm 1.70 in43.2 mm
12:00 PM 45.1°F7.3°C 44.0°F6.7°C 96% 9.2 mph E14.8 kmh E 11.5 mph18.5 kmh 29.61 in1002.7 mb - 0.03 in0.8 mm 1.73 in43.9 mm
12:10 PM 45.2°F7.3°C 44.1°F6.7°C 96% 9.2 mph E14.8 kmh E 11.5 mph18.5 kmh 29.60 in1002.4 mb - 0.05 in1.3 mm 1.77 in45.0 mm
12:20 PM 45.3°F7.4°C 44.2°F6.8°C 96% 6.9 mph ESE11.1 kmh ESE 11.5 mph18.5 kmh 29.62 in1003.0 mb - 0.04 in1.0 mm 1.80 in45.7 mm
12:30 PM 45.4°F7.4°C 44.3°F6.8°C 96% 3.5 mph E5.6 kmh E 6.9 mph11.1 kmh 29.62 in1003.0 mb - 0.06 in1.5 mm 1.85 in47.0 mm
12:40 PM 45.4°F7.4°C 44.4°F6.9°C 96% Calm Calm -- 29.63 in1003.4 mb - 0.01 in0.3 mm 1.86 in47.2 mm
12:50 PM 45.5°F7.5°C 44.4°F6.9°C 96% 1.2 mph NE1.9 kmh NE 2.3 mph3.7 kmh 29.64 in1003.7 mb - 0.04 in1.0 mm 1.90 in48.3 mm
01:00 PM 45.5°F7.5°C 44.4°F6.9°C 96% 2.3 mph NE3.7 kmh NE 3.5 mph5.6 kmh 29.63 in1003.4 mb - 0.08 in2.0 mm 1.98 in50.3 mm
01:10 PM 45.6°F7.6°C 44.5°F6.9°C 96% 5.8 mph ENE9.3 kmh ENE 6.9 mph11.1 kmh 29.61 in1002.7 mb - 0.05 in1.3 mm 2.02 in51.3 mm
01:20 PM 45.7°F7.6°C 44.6°F7.0°C 96% 2.3 mph NE3.7 kmh NE 3.5 mph5.6 kmh 29.62 in1003.0 mb - 0.01 in0.3 mm 2.03 in51.6 mm
01:30 PM 45.7°F7.6°C 44.6°F7.0°C 96% Calm Calm -- 29.64 in1003.7 mb - 0.03 in0.8 mm 2.06 in52.3 mm
01:40 PM 45.8°F7.7°C 44.7°F7.1°C 96% 1.2 mph NNE1.9 kmh NNE 2.3 mph3.7 kmh 29.65 in1004.1 mb - 0.00 in0.0 mm 2.06 in52.3 mm
01:50 PM 45.8°F7.7°C 44.8°F7.1°C 96% 4.6 mph NE7.4 kmh NE 8.1 mph13.0 kmh 29.62 in1003.0 mb - 0.00 in0.0 mm 2.06 in52.3 mm
02:00 PM 45.8°F7.7°C 45.0°F7.2°C 97% 15.0 mph NE24.1 kmh NE 19.6 mph31.5 kmh 29.53 in1000.0 mb - 0.01 in0.3 mm 2.07 in52.6 mm
02:10 PM 46.0°F7.8°C 45.2°F7.3°C 97% 13.8 mph NE22.2 kmh NE 17.3 mph27.8 kmh 29.48 in998.3 mb - 0.00 in0.0 mm 2.07 in52.6 mm
02:20 PM 46.0°F7.8°C 44.9°F7.2°C 96% 12.7 mph ENE20.4 kmh ENE 15.0 mph24.1 kmh 29.51 in999.3 mb - 0.00 in0.0 mm 2.07 in52.6 mm
02:30 PM 46.2°F7.9°C 45.4°F7.4°C 97% 11.5 mph SE18.5 kmh SE 15.0 mph24.1 kmh 29.58 in1001.7 mb - 0.00 in0.0 mm 2.07 in52.6 mm
02:40 PM 47.0°F8.3°C 46.2°F7.9°C 97% 12.7 mph E20.4 kmh E 16.1 mph25.9 kmh 29.57 in1001.4 mb - 0.00 in0.0 mm 2.07 in52.6 mm
02:50 PM 48.6°F9.2°C 47.5°F8.6°C 96% 9.2 mph ESE14.8 kmh ESE 11.5 mph18.5 kmh 29.56 in1001.0 mb - 0.00 in0.0 mm 2.07 in52.6 mm
03:00 PM 49.3°F9.6°C 48.0°F8.9°C 95% 9.2 mph E14.8 kmh E 15.0 mph24.1 kmh 29.56 in1001.0 mb - 0.00 in0.0 mm 2.07 in52.6 mm
03:10 PM 49.8°F9.9°C 47.8°F8.8°C 93% 8.1 mph E13.0 kmh E 11.5 mph18.5 kmh 29.56 in1001.0 mb - 0.00 in0.0 mm 2.07 in52.6 mm
03:20 PM 50.1°F10.1°C 47.8°F8.8°C 92% 8.1 mph E13.0 kmh E 11.5 mph18.5 kmh 29.57 in1001.4 mb - 0.00 in0.0 mm 2.07 in52.6 mm
03:30 PM 50.3°F10.2°C 47.8°F8.8°C 91% 9.2 mph E14.8 kmh E 10.4 mph16.7 kmh 29.57 in1001.4 mb - 0.00 in0.0 mm 2.07 in52.6 mm
03:40 PM 51.0°F10.6°C 48.5°F9.2°C 91% 9.2 mph E14.8 kmh E 16.1 mph25.9 kmh 29.56 in1001.0 mb - 0.00 in0.0 mm 2.07 in52.6 mm
03:50 PM 51.3°F10.7°C 48.7°F9.3°C 91% 8.1 mph ESE13.0 kmh ESE 12.7 mph20.4 kmh 29.55 in1000.7 mb - 0.00 in0.0 mm 2.07 in52.6 mm
04:00 PM 51.3°F10.7°C 48.8°F9.3°C 91% 10.4 mph E16.7 kmh E 12.7 mph20.4 kmh 29.56 in1001.0 mb - 0.00 in0.0 mm 2.07 in52.6 mm
04:10 PM 51.2°F10.7°C 49.0°F9.4°C 92% 5.8 mph ENE9.3 kmh ENE 9.2 mph14.8 kmh 29.56 in1001.0 mb - 0.00 in0.0 mm 2.07 in52.6 mm
04:20 PM 51.0°F10.6°C 48.8°F9.3°C 92% 5.8 mph ENE9.3 kmh ENE 8.1 mph13.0 kmh 29.56 in1001.0 mb - 0.00 in0.0 mm 2.07 in52.6 mm
04:30 PM 50.8°F10.4°C 48.6°F9.2°C 92% 5.8 mph ENE9.3 kmh ENE 6.9 mph11.1 kmh 29.56 in1001.0 mb - 0.00 in0.0 mm 2.07 in52.6 mm
04:40 PM 50.7°F10.4°C 48.4°F9.1°C 92% 9.2 mph NE14.8 kmh NE 11.5 mph18.5 kmh 29.56 in1001.0 mb - 0.00 in0.0 mm 2.07 in52.6 mm
04:50 PM 50.6°F10.3°C 48.4°F9.1°C 92% 6.9 mph ENE11.1 kmh ENE 9.2 mph14.8 kmh 29.56 in1001.0 mb - 0.00 in0.0 mm 2.07 in52.6 mm
05:00 PM 50.5°F10.3°C 48.3°F9.1°C 92% 6.9 mph ENE11.1 kmh ENE 9.2 mph14.8 kmh 29.56 in1001.0 mb - 0.00 in0.0 mm 2.07 in52.6 mm
05:10 PM 50.4°F10.2°C 48.4°F9.1°C 93% 8.1 mph ENE13.0 kmh ENE 10.4 mph16.7 kmh 29.56 in1001.0 mb - 0.00 in0.0 mm 2.07 in52.6 mm
05:20 PM 50.1°F10.1°C 47.9°F8.8°C 92% 6.9 mph NE11.1 kmh NE 10.4 mph16.7 kmh 29.55 in1000.7 mb - 0.00 in0.0 mm 2.07 in52.6 mm
05:30 PM 49.7°F9.8°C 47.5°F8.6°C 92% 5.8 mph ENE9.3 kmh ENE 10.4 mph16.7 kmh 29.56 in1001.0 mb - 0.00 in0.0 mm 2.07 in52.6 mm
05:40 PM 49.6°F9.8°C 47.7°F8.7°C 93% 3.5 mph NE5.6 kmh NE 3.5 mph5.6 kmh 29.57 in1001.4 mb - 0.00 in0.0 mm 2.07 in52.6 mm
05:50 PM 49.5°F9.7°C 47.6°F8.7°C 93% 5.8 mph NE9.3 kmh NE 6.9 mph11.1 kmh 29.58 in1001.7 mb - 0.00 in0.0 mm 2.07 in52.6 mm
06:00 PM 49.2°F9.6°C 47.0°F8.3°C 92% 4.6 mph NE7.4 kmh NE 8.1 mph13.0 kmh 29.58 in1001.7 mb - 0.00 in0.0 mm 2.07 in52.6 mm
06:10 PM 49.1°F9.5°C 47.2°F8.4°C 93% 4.6 mph NE7.4 kmh NE 4.6 mph7.4 kmh 29.58 in1001.7 mb - 0.00 in0.0 mm 2.07 in52.6 mm
06:20 PM 49.0°F9.4°C 47.1°F8.4°C 93% 5.8 mph NNE9.3 kmh NNE 8.1 mph13.0 kmh 29.58 in1001.7 mb - 0.00 in0.0 mm 2.07 in52.6 mm
06:30 PM 48.7°F9.3°C 46.8°F8.2°C 93% 4.6 mph NE7.4 kmh NE 8.1 mph13.0 kmh 29.57 in1001.4 mb - 0.00 in0.0 mm 2.07 in52.6 mm
06:40 PM 48.5°F9.2°C 46.6°F8.1°C 93% 4.6 mph NNE7.4 kmh NNE 5.8 mph9.3 kmh 29.57 in1001.4 mb - 0.00 in0.0 mm 2.07 in52.6 mm
06:50 PM 48.2°F9.0°C 46.2°F7.9°C 93% 9.2 mph NNE14.8 kmh NNE 13.8 mph22.2 kmh 29.55 in1000.7 mb - 0.01 in0.3 mm 2.08 in52.8 mm
07:00 PM 47.7°F8.7°C 45.8°F7.7°C 93% 12.7 mph NNE20.4 kmh NNE 15.0 mph24.1 kmh 29.55 in1000.7 mb - 0.00 in0.0 mm 2.08 in52.8 mm
07:10 PM 47.2°F8.4°C 45.2°F7.3°C 93% 9.2 mph NE14.8 kmh NE 12.7 mph20.4 kmh 29.54 in1000.3 mb - 0.00 in0.0 mm 2.08 in52.8 mm
07:20 PM 46.8°F8.2°C 45.1°F7.3°C 94% 9.2 mph NE14.8 kmh NE 12.7 mph20.4 kmh 29.54 in1000.3 mb - 0.00 in0.0 mm 2.08 in52.8 mm
07:30 PM 46.5°F8.1°C 44.9°F7.2°C 94% 9.2 mph NE14.8 kmh NE 11.5 mph18.5 kmh 29.54 in1000.3 mb - 0.00 in0.0 mm 2.08 in52.8 mm
07:40 PM 46.4°F8.0°C 44.8°F7.1°C 94% 4.6 mph NE7.4 kmh NE 8.1 mph13.0 kmh 29.55 in1000.7 mb - 0.00 in0.0 mm 2.08 in52.8 mm
07:50 PM 46.3°F7.9°C 44.7°F7.1°C 94% 9.2 mph NNE14.8 kmh NNE 15.0 mph24.1 kmh 29.55 in1000.7 mb - 0.00 in0.0 mm 2.08 in52.8 mm
08:00 PM 46.1°F7.8°C 44.5°F6.9°C 94% 9.2 mph NNE14.8 kmh NNE 11.5 mph18.5 kmh 29.55 in1000.7 mb - 0.00 in0.0 mm 2.08 in52.8 mm
08:10 PM 46.1°F7.8°C 44.4°F6.9°C 94% 6.9 mph NE11.1 kmh NE 8.1 mph13.0 kmh 29.56 in1001.0 mb - 0.00 in0.0 mm 2.08 in52.8 mm
08:20 PM 46.0°F7.8°C 44.7°F7.1°C 95% 4.6 mph NE7.4 kmh NE 4.6 mph7.4 kmh 29.57 in1001.4 mb - 0.00 in0.0 mm 2.08 in52.8 mm
08:30 PM 46.1°F7.8°C 44.7°F7.1°C 95% 4.6 mph NNE7.4 kmh NNE 5.8 mph9.3 kmh 29.58 in1001.7 mb - 0.00 in0.0 mm 2.08 in52.8 mm
08:40 PM 46.0°F7.8°C 44.6°F7.0°C 95% 4.6 mph NNE7.4 kmh NNE 10.4 mph16.7 kmh 29.58 in1001.7 mb - 0.00 in0.0 mm 2.08 in52.8 mm
08:50 PM 46.0°F7.8°C 44.7°F7.1°C 95% 5.8 mph NE9.3 kmh NE 8.1 mph13.0 kmh 29.59 in1002.0 mb - 0.00 in0.0 mm 2.08 in52.8 mm
09:00 PM 46.0°F7.8°C 44.6°F7.0°C 95% 4.6 mph NE7.4 kmh NE 5.8 mph9.3 kmh 29.59 in1002.0 mb - 0.00 in0.0 mm 2.08 in52.8 mm
09:10 PM 46.0°F7.8°C 44.6°F7.0°C 95% 5.8 mph NE9.3 kmh NE 5.8 mph9.3 kmh 29.59 in1002.0 mb - 0.00 in0.0 mm 2.08 in52.8 mm
09:20 PM 45.9°F7.7°C 44.5°F6.9°C 95% 4.6 mph NE7.4 kmh NE 10.4 mph16.7 kmh 29.59 in1002.0 mb - 0.00 in0.0 mm 2.08 in52.8 mm
09:30 PM 45.8°F7.7°C 44.4°F6.9°C 95% 8.1 mph NE13.0 kmh NE 9.2 mph14.8 kmh 29.59 in1002.0 mb - 0.00 in0.0 mm 2.08 in52.8 mm
09:40 PM 45.7°F7.6°C 44.4°F6.9°C 95% 8.1 mph NE13.0 kmh NE 10.4 mph16.7 kmh 29.59 in1002.0 mb - 0.00 in0.0 mm 2.08 in52.8 mm
09:50 PM 45.6°F7.6°C 44.3°F6.8°C 95% 5.8 mph N9.3 kmh N 8.1 mph13.0 kmh 29.59 in1002.0 mb - 0.00 in0.0 mm 2.08 in52.8 mm
10:00 PM 45.4°F7.4°C 44.1°F6.7°C 95% 6.9 mph NNE11.1 kmh NNE 11.5 mph18.5 kmh 29.60 in1002.4 mb - 0.00 in0.0 mm 2.08 in52.8 mm
10:10 PM 45.0°F7.2°C 43.6°F6.4°C 95% 6.9 mph NE11.1 kmh NE 8.1 mph13.0 kmh 29.59 in1002.0 mb - 0.00 in0.0 mm 2.08 in52.8 mm
10:20 PM 44.6°F7.0°C 43.3°F6.3°C 95% 6.9 mph NE11.1 kmh NE 11.5 mph18.5 kmh 29.60 in1002.4 mb - 0.00 in0.0 mm 2.08 in52.8 mm
10:30 PM 44.4°F6.9°C 43.0°F6.1°C 95% 8.1 mph NE13.0 kmh NE 12.7 mph20.4 kmh 29.60 in1002.4 mb - 0.00 in0.0 mm 2.08 in52.8 mm
10:40 PM 44.2°F6.8°C 42.9°F6.1°C 95% 8.1 mph NNE13.0 kmh NNE 10.4 mph16.7 kmh 29.60 in1002.4 mb - 0.00 in0.0 mm 2.08 in52.8 mm
10:50 PM 44.0°F6.7°C 42.7°F5.9°C 95% 6.9 mph NE11.1 kmh NE 9.2 mph14.8 kmh 29.60 in1002.4 mb - 0.00 in0.0 mm 2.08 in52.8 mm
11:00 PM 43.9°F6.6°C 42.6°F5.9°C 95% 6.9 mph NE11.1 kmh NE 11.5 mph18.5 kmh 29.60 in1002.4 mb - 0.00 in0.0 mm 2.08 in52.8 mm
11:10 PM 43.8°F6.6°C 42.5°F5.8°C 95% 6.9 mph NE11.1 kmh NE 13.8 mph22.2 kmh 29.60 in1002.4 mb - 0.00 in0.0 mm 2.08 in52.8 mm
11:20 PM 43.7°F6.5°C 42.4°F5.8°C 95% 8.1 mph NE13.0 kmh NE 10.4 mph16.7 kmh 29.60 in1002.4 mb - 0.00 in0.0 mm 2.08 in52.8 mm
11:30 PM 43.7°F6.5°C 42.4°F5.8°C 95% 6.9 mph NE11.1 kmh NE 9.2 mph14.8 kmh 29.60 in1002.4 mb - 0.00 in0.0 mm 2.08 in52.8 mm
11:40 PM 43.6°F6.4°C 42.3°F5.7°C 95% 8.1 mph NE13.0 kmh NE 9.2 mph14.8 kmh 29.60 in1002.4 mb - 0.00 in0.0 mm 2.08 in52.8 mm
11:50 PM 43.5°F6.4°C 42.2°F5.7°C 95% 5.8 mph NE9.3 kmh NE 6.9 mph11.1 kmh 29.60 in1002.4 mb - 0.00 in0.0 mm 2.08 in52.8 mm